tititudorancea.com
Station Historical Data
Daily Summary for March 7, 2019 Units:  Metric    English   Both
« Previous Day
Next Day »
Daily Weekly Monthly Yearly Custom
  High: Low: Average:
Temperature: -17.8 °C 2.9 °C 13.8 °C
Dew Point: -17.8 °C -2.9 °C 1.6 °C
Humidity: Humidity % 21 % 50 %
Wind Speed: 0 km/h 0 km/h 6.3 km/h
Wind Gust: 0 km/h - -
Wind:- - SW
Pressure: 0 hPa 1016.5 hPa -
Precipitation: 0 mm    
Historical Graphs
 
 
Ararat weather Find more about Weather in Ararat, AU


 



 


Tabular Data for March 7, 2019
Time Temperature Dew Point Pressure Wind Wind Speed Wind Gust Humidity Rainfall Rate (Hourly)
-17.8 °C -17.8 °C 0 hPa Calm     Humidity % 0 mm
00:04 8.2 °C 3.7 °C 1021.9 hPa SSW 5.6 km/h 3.7 km/h 73 % 0 mm
00:09 8.3 °C 3.9 °C 1021.9 hPa SSW 7.4 km/h 5 km/h 74 % 0 mm
00:14 8.4 °C 4.1 °C 1021.9 hPa SSW 9.3 km/h 6.9 km/h 74 % 0 mm
00:19 8.7 °C 4.1 °C 1021.9 hPa SSW 14.8 km/h 9.5 km/h 73 % 0 mm
00:24 8.8 °C 4.3 °C 1021.6 hPa SSW 14.8 km/h 10.6 km/h 73 % 0 mm
00:29 8.9 °C 3.9 °C 1021.6 hPa SSW 7.4 km/h 4.5 km/h 71 % 0 mm
00:34 8.9 °C 3.9 °C 1021.6 hPa SSW 9.3 km/h 4.8 km/h 71 % 0 mm
00:39 8.9 °C 3.9 °C 1021.6 hPa SSW 13 km/h 7.2 km/h 71 % 0 mm
00:44 8.9 °C 3.9 °C 1021.6 hPa SSW 11.1 km/h 6.3 km/h 71 % 0 mm
00:49 8.9 °C 3.9 °C 1021.6 hPa SSW 9.7 km/h 7.9 km/h 71 % 0 mm
00:54 8.9 °C 3.9 °C 1021.6 hPa SSW 8 km/h 4.7 km/h 71 % 0 mm
00:59 8.7 °C 3.6 °C 1021.6 hPa SSW 1.9 km/h 1.6 km/h 70 % 0 mm
01:04 8.4 °C 3.2 °C 1021.6 hPa SSW 3.7 km/h 2.6 km/h 70 % 0 mm
01:09 7.9 °C 2.9 °C 1021.6 hPa Calm   0.8 km/h 71 % 0 mm
01:14 7.6 °C 2.8 °C 1021.6 hPa SSW 5.6 km/h 2.3 km/h 72 % 0 mm
01:19 7.3 °C 2.8 °C 1021.6 hPa SSW 3.2 km/h 2.1 km/h 73 % 0 mm
01:24 7.1 °C 2.6 °C 1021.6 hPa SSW 1.9 km/h 1.8 km/h 73 % 0 mm
01:29 6.9 °C 2.4 °C 1021.6 hPa SSW 1.9 km/h 0.2 km/h 73 % 0 mm
01:34 6.7 °C 2.3 °C 1021.6 hPa Calm     74 % 0 mm
01:39 6.4 °C 2.2 °C 1021.6 hPa Calm     74 % 0 mm
01:44 6.2 °C 2.1 °C 1021.6 hPa Calm     75 % 0 mm
01:49 6 °C 2.1 °C 1021.9 hPa Calm     76 % 0 mm
01:54 5.8 °C 2.2 °C 1021.6 hPa Calm     78 % 0 mm
01:59 5.6 °C 2.3 °C 1021.6 hPa Calm     79 % 0 mm
02:04 5.5 °C 2.2 °C 1021.6 hPa Calm     79 % 0 mm
02:09 5.4 °C 2.2 °C 1021.9 hPa Calm     80 % 0 mm
02:14 5.3 °C 2.3 °C 1021.6 hPa SSW 3.7 km/h 1.4 km/h 81 % 0 mm
02:19 5.1 °C 2.1 °C 1021.6 hPa Calm     81 % 0 mm
02:24 5 °C 2 °C 1021.9 hPa Calm     81 % 0 mm
02:29 4.9 °C 2.1 °C 1021.9 hPa Calm     82 % 0 mm
02:34 4.9 °C 2.1 °C 1021.9 hPa North 3.7 km/h 0.6 km/h 82 % 0 mm
02:39 4.8 °C 2.2 °C 1021.9 hPa Calm     83 % 0 mm
02:44 4.8 °C 2.1 °C 1021.9 hPa Calm     83 % 0 mm
02:49 4.8 °C 2.3 °C 1021.9 hPa Calm     84 % 0 mm
02:54 4.8 °C 2.3 °C 1021.9 hPa Calm     84 % 0 mm
02:59 4.7 °C 2.4 °C 1021.9 hPa SSW 3.7 km/h 1.3 km/h 85 % 0 mm
03:04 4.8 °C 2.5 °C 1021.9 hPa SSW 3.7 km/h 1.4 km/h 85 % 0 mm
03:09 4.9 °C 2.7 °C 1021.9 hPa Calm     86 % 0 mm
03:14 4.8 °C 2.5 °C 1021.9 hPa SSW 1.6 km/h 0.3 km/h 85 % 0 mm
03:19 4.7 °C 2.4 °C 1022.2 hPa Calm     85 % 0 mm
03:24 4.6 °C 2.3 °C 1022.2 hPa Calm     85 % 0 mm
03:29 4.4 °C 2.1 °C 1022.2 hPa Calm     85 % 0 mm
03:34 4.3 °C 2 °C 1021.9 hPa Calm     85 % 0 mm
03:39 4.1 °C 1.8 °C 1021.9 hPa Calm     85 % 0 mm
03:44 4 °C 1.9 °C 1021.9 hPa Calm     86 % 0 mm
03:49 3.9 °C 1.8 °C 1021.9 hPa Calm     86 % 0 mm
03:54 3.8 °C 1.7 °C 1021.9 hPa Calm     86 % 0 mm
03:59 3.7 °C 1.6 °C 1021.9 hPa Calm     86 % 0 mm
04:04 3.7 °C 1.7 °C 1021.9 hPa Calm     87 % 0 mm
04:09 3.6 °C 1.7 °C 1021.9 hPa Calm     87 % 0 mm
04:14 3.6 °C 1.7 °C 1021.9 hPa North 5.6 km/h 3.1 km/h 87 % 0 mm
04:19 3.6 °C 1.6 °C 1021.9 hPa Calm     87 % 0 mm
04:24 3.6 °C 1.8 °C 1021.9 hPa Calm     88 % 0 mm
04:29 3.6 °C 1.8 °C 1021.9 hPa Calm     88 % 0 mm
04:34 3.5 °C 1.6 °C 1021.9 hPa Calm     87 % 0 mm
04:39 3.4 °C 1.5 °C 1021.9 hPa Calm     87 % 0 mm
04:44 3.3 °C 1.4 °C 1022.2 hPa Calm     87 % 0 mm
04:49 3.2 °C 1.3 °C 1022.2 hPa Calm     87 % 0 mm
04:54 3.1 °C 1.2 °C 1022.2 hPa Calm     87 % 0 mm
04:59 3.1 °C 1.3 °C 1022.2 hPa Calm     88 % 0 mm
05:04 3.1 °C 1.3 °C 1022.2 hPa Calm     88 % 0 mm
05:09 3.1 °C 1.5 °C 1022.2 hPa Calm     89 % 0 mm
05:14 3.2 °C 1.6 °C 1022.6 hPa Calm     89 % 0 mm
05:19 3.2 °C 1.6 °C 1022.6 hPa Calm     89 % 0 mm
05:24 3.3 °C 1.6 °C 1022.6 hPa Calm     89 % 0 mm
05:29 3.3 °C 1.8 °C 1022.6 hPa Calm     90 % 0 mm
07:39 2.9 °C 1.6 °C 1023.6 hPa Calm     91 % 0 mm
07:44 3 °C 1.7 °C 1023.6 hPa Calm     91 % 0 mm
07:49 3.2 °C 2.1 °C 1023.6 hPa SSW 3.7 km/h 0.3 km/h 92 % 0 mm
07:54 3.5 °C 2.3 °C 1023.9 hPa Calm     92 % 0 mm
07:59 3.9 °C 2.8 °C 1023.9 hPa Calm     92 % 0 mm
08:04 4.5 °C 3.4 °C 1023.9 hPa Calm     93 % 0 mm
08:09 5.1 °C 4 °C 1023.9 hPa Calm     93 % 0 mm
08:14 5.4 °C 4.2 °C 1023.9 hPa SSW 1.9 km/h 0.2 km/h 92 % 0 mm
08:19 6.1 °C 5 °C 1023.9 hPa Calm     93 % 0 mm
08:24 6.8 °C 5.8 °C 1023.9 hPa Calm     93 % 0 mm
08:29 7.6 °C 6.2 °C 1023.9 hPa Calm     91 % 0 mm
08:34 8.2 °C 6.6 °C 1023.9 hPa Calm     90 % 0 mm
08:39 8.4 °C 6.2 °C 1023.9 hPa Calm     86 % 0 mm
08:44 8.6 °C 6.2 °C 1024.3 hPa Calm     85 % 0 mm
08:49 9.2 °C 6.6 °C 1024.3 hPa SSW 1.9 km/h   84 % 0 mm
08:54 9.9 °C 6.6 °C 1024.3 hPa Calm     80 % 0 mm
08:59 10.6 °C 6.3 °C 1024.3 hPa Calm     75 % 0 mm
09:04 10.9 °C 6.1 °C 1024.3 hPa Calm     72 % 0 mm
09:09 11.4 °C 5.9 °C 1024.3 hPa SSW 3.7 km/h 1.6 km/h 69 % 0 mm
09:14 11.7 °C 6 °C 1024.3 hPa SSW 5.6 km/h 0.3 km/h 68 % 0 mm
09:19 12 °C 5.6 °C 1024.3 hPa SSW 5.6 km/h 2.3 km/h 65 % 0 mm
09:24 11.8 °C 4.9 °C 1024.3 hPa SSW 4.8 km/h 1.1 km/h 63 % 0 mm
09:29 11.9 °C 5.3 °C 1024.3 hPa SSW 4.8 km/h 1.8 km/h 64 % 0 mm
09:34 12.1 °C 5.3 °C 1024.3 hPa SSW 5.6 km/h 1.4 km/h 63 % 0 mm
09:39 12.2 °C 5.1 °C 1024.3 hPa SSW 5.6 km/h 2.7 km/h 62 % 0 mm
09:44 12.2 °C 5.3 °C 1024.3 hPa SSW 3.7 km/h   63 % 0 mm
09:49 12.3 °C 5.2 °C 1024.3 hPa SSW 5.6 km/h 4 km/h 62 % 0 mm
09:54 12.5 °C 5.2 °C 1024.3 hPa Calm     61 % 0 mm
09:59 12.9 °C 5.3 °C 1024.3 hPa SSW 6.4 km/h 1.8 km/h 60 % 0 mm
10:04 13.3 °C 5.2 °C 1024.3 hPa SSW 6.4 km/h 3.4 km/h 58 % 0 mm
10:09 13.6 °C 5.2 °C 1024.3 hPa SSW 5.6 km/h 5 km/h 57 % 0 mm
10:14 13.7 °C 4.6 °C 1024.3 hPa SSW 3.7 km/h 1 km/h 54 % 0 mm
10:19 13.8 °C 4.6 °C 1024.3 hPa SSW 5.6 km/h 2.3 km/h 54 % 0 mm
10:24 13.7 °C 5.1 °C 1024.3 hPa SSW 1.9 km/h 0.2 km/h 56 % 0 mm
10:29 14.1 °C 4.9 °C 1024.3 hPa SSW 3.7 km/h 0.2 km/h 54 % 0 mm
10:34 14.3 °C 4.9 °C 1024.3 hPa SSW 6.4 km/h 1 km/h 53 % 0 mm
10:39 14.4 °C 4.9 °C 1024.3 hPa SSW 8 km/h 7.2 km/h 53 % 0 mm
10:44 13.8 °C 4.3 °C 1023.9 hPa South 9.3 km/h 2.6 km/h 53 % 0 mm
10:49 14.1 °C 4.4 °C 1023.9 hPa SSE 9.7 km/h 7.6 km/h 52 % 0 mm
10:54 14.6 °C 4.2 °C 1023.9 hPa SSE 3.7 km/h 3.4 km/h 50 % 0 mm
10:59 14.9 °C 4.6 °C 1023.9 hPa SSE 9.3 km/h 4.8 km/h 50 % 0 mm
11:04 15.4 °C 4.5 °C 1023.9 hPa SSE 7.4 km/h 4.8 km/h 48 % 0 mm
11:09 15.4 °C 3.9 °C 1023.6 hPa SSE 11.1 km/h 7.4 km/h 46 % 0 mm
11:14 14.9 °C 4.3 °C 1023.6 hPa SSE 13 km/h 6.4 km/h 49 % 0 mm
11:19 15.4 °C 4.5 °C 1023.6 hPa SSE 6.4 km/h 1.6 km/h 48 % 0 mm
11:24 15.6 °C 4.6 °C 1023.6 hPa SSE 9.7 km/h 6.3 km/h 48 % 0 mm
11:29 15.8 °C 4.6 °C 1023.6 hPa SE 11.1 km/h 7.9 km/h 47 % 0 mm
11:34 15.6 °C 4 °C 1023.6 hPa East 13 km/h 4.5 km/h 46 % 0 mm
11:39 15.2 °C 3.7 °C 1023.6 hPa East 7.4 km/h 2.9 km/h 46 % 0 mm
11:44 15.5 °C 3.6 °C 1023.6 hPa East 5.6 km/h 3.9 km/h 45 % 0 mm
11:49 15.8 °C 3.6 °C 1023.2 hPa East 6.4 km/h 3.7 km/h 44 % 0 mm
11:54 15.9 °C 3.9 °C 1023.2 hPa East 3.7 km/h 0.8 km/h 45 % 0 mm
11:59 16 °C 4.1 °C 1023.2 hPa East 3.7 km/h 2.1 km/h 45 % 0 mm
12:04 16.3 °C 4 °C 1023.2 hPa East 8 km/h 1.9 km/h 44 % 0 mm
12:09 16.5 °C 4.2 °C 1023.2 hPa East 7.4 km/h 6 km/h 44 % 0 mm
12:14 16.5 °C 3.9 °C 1023.2 hPa East 6.4 km/h 2.3 km/h 43 % 0 mm
12:19 16.7 °C 4.1 °C 1022.9 hPa ENE 13 km/h 9 km/h 43 % 0 mm
12:24 16.4 °C 3.5 °C 1022.9 hPa ENE 5.6 km/h 4.2 km/h 42 % 0 mm
12:29 16.5 °C 3.9 °C 1022.9 hPa ENE 7.4 km/h 6.1 km/h 43 % 0 mm
12:34 16.9 °C 3.6 °C 1022.6 hPa ENE 11.1 km/h 3.4 km/h 41 % 0 mm
12:39 17.3 °C 3.6 °C 1022.6 hPa ENE 7.4 km/h 6 km/h 40 % 0 mm
12:44 17.9 °C 4.5 °C 1022.6 hPa ENE 7.4 km/h 4.5 km/h 41 % 0 mm
12:49 17.7 °C 3.2 °C 1022.2 hPa ENE 5.6 km/h 1.4 km/h 38 % 0 mm
12:54 17.3 °C 3.6 °C 1021.9 hPa ENE 9.7 km/h 7.1 km/h 40 % 0 mm
12:59 17.1 °C 3.7 °C 1021.9 hPa NNE 7.4 km/h 3.2 km/h 41 % 0 mm
13:04 17.1 °C 3.4 °C 1021.9 hPa NNE 1.9 km/h 0.5 km/h 40 % 0 mm
13:09 17.4 °C 4 °C 1021.9 hPa NNE 5.6 km/h 1.4 km/h 41 % 0 mm
13:14 17.9 °C 4.1 °C 1021.6 hPa NNE 4.8 km/h 3.9 km/h 40 % 0 mm
13:19 18.2 °C 4 °C 1021.6 hPa NNE 3.7 km/h 0.2 km/h 39 % 0 mm
13:24 18.8 °C 4.2 °C 1021.2 hPa NNE 9.7 km/h 6.3 km/h 38 % 0 mm
13:29 19.8 °C 3.9 °C 1021.2 hPa NNE 8 km/h 6.9 km/h 35 % 0 mm
13:34 19.5 °C 3.6 °C 1021.2 hPa NNE 7.4 km/h 8.4 km/h 35 % 0 mm
13:39 19.3 °C 3.4 °C 1020.9 hPa NNE 8 km/h 6.4 km/h 35 % 0 mm
13:44 19.8 °C 3.9 °C 1020.9 hPa NNE 11.1 km/h 7.1 km/h 35 % 0 mm
13:49 19.9 °C 3.1 °C 1020.9 hPa NNE 9.7 km/h 8.5 km/h 33 % 0 mm
13:54 19.3 °C 3.1 °C 1020.5 hPa North 13 km/h 7.1 km/h 34 % 0 mm
13:59 19.4 °C 3.1 °C 1020.5 hPa North 9.3 km/h 6.9 km/h 34 % 0 mm
14:04 19.3 °C 2.7 °C 1020.5 hPa WNW 16.7 km/h 13.7 km/h 33 % 0 mm
14:09 19.1 °C 2.4 °C 1020.5 hPa North 14.8 km/h 12.1 km/h 33 % 0 mm
14:14 19.2 °C 2.5 °C 1020.5 hPa NW 14.8 km/h 9.7 km/h 33 % 0 mm
14:19 19.3 °C 2.2 °C 1020.2 hPa WNW 13 km/h 11.3 km/h 32 % 0 mm
14:24 19.7 °C 2.6 °C 1020.2 hPa NW 11.1 km/h 5.6 km/h 32 % 0 mm
14:29 20.5 °C 2.8 °C 1019.9 hPa NW 11.1 km/h 6 km/h 31 % 0 mm
14:34 20.5 °C 2.3 °C 1019.9 hPa NW 16.7 km/h 9.5 km/h 30 % 0 mm
14:39 20.2 °C 1.6 °C 1019.9 hPa NNW 14.8 km/h 5.1 km/h 29 % 0 mm
14:44 20 °C 1.4 °C 1019.9 hPa NNE 14.8 km/h 6.3 km/h 29 % 0 mm
14:49 20.2 °C 2 °C 1019.9 hPa North 9.7 km/h 9.2 km/h 30 % 0 mm
14:54 20.2 °C 2.1 °C 1019.9 hPa NW 18.5 km/h 11.6 km/h 30 % 0 mm
14:59 20.1 °C 2 °C 1019.5 hPa NW 5.6 km/h 0.3 km/h 30 % 0 mm
15:04 20.6 °C 1.9 °C 1019.5 hPa NE 16.7 km/h 10.9 km/h 29 % 0 mm
15:09 20.6 °C 0.9 °C 1019.5 hPa NNE 11.1 km/h 7.2 km/h 27 % 0 mm
15:14 20.8 °C 0.6 °C 1019.5 hPa North 22.2 km/h 15.8 km/h 26 % 0 mm
15:19 20.7 °C 1 °C 1019.5 hPa NNE 14.8 km/h 6.9 km/h 27 % 0 mm
15:24 20.8 °C 1.6 °C 1019.2 hPa NNE 12.9 km/h 6.3 km/h 28 % 0 mm
15:29 21.2 °C 1.4 °C 1018.8 hPa NNW 14.8 km/h 8.5 km/h 27 % 0 mm
15:34 21.4 °C 1.1 °C 1018.8 hPa NNE 18.5 km/h 7.7 km/h 26 % 0 mm
15:39 21.3 °C 1.1 °C 1018.8 hPa North 11.1 km/h 6.9 km/h 26 % 0 mm
15:44 21.3 °C 1.5 °C 1018.8 hPa North 12.9 km/h 7.4 km/h 27 % 0 mm
15:49 21.5 °C 0.6 °C 1018.8 hPa North 16.7 km/h 10 km/h 25 % 0 mm
15:54 21.3 °C 1.1 °C 1018.5 hPa NNW 14.8 km/h 7.6 km/h 26 % 0 mm
15:59 21.6 °C 0.7 °C 1018.5 hPa North 11.3 km/h 7.1 km/h 25 % 0 mm
16:04 21.6 °C 0.1 °C 1018.5 hPa NW 12.9 km/h 11.7 km/h 24 % 0 mm
16:09 21.3 °C -0.1 °C 1018.2 hPa NW 5.6 km/h 3.4 km/h 24 % 0 mm
16:14 21.6 °C 0.1 °C 1018.2 hPa North 20.4 km/h 8 km/h 24 % 0 mm
16:19 21.9 °C 0.4 °C 1018.2 hPa North 14.8 km/h 10.3 km/h 24 % 0 mm
16:24 21.8 °C 0.3 °C 1018.2 hPa North 18.5 km/h 11.6 km/h 24 % 0 mm
16:29 21.8 °C 0.3 °C 1018.2 hPa North 11.1 km/h 10.5 km/h 24 % 0 mm
16:34 21.9 °C 1 °C 1018.2 hPa North 13 km/h 9.2 km/h 25 % 0 mm
16:39 22.1 °C 0.6 °C 1018.2 hPa NNW 13 km/h 9.3 km/h 24 % 0 mm
16:44 21.8 °C 0.3 °C 1017.8 hPa NW 14.8 km/h 9 km/h 24 % 0 mm
16:49 21.9 °C 0.9 °C 1017.8 hPa NNW 12.9 km/h 5.6 km/h 25 % 0 mm
16:54 21.8 °C 0.3 °C 1017.8 hPa North 13 km/h 5.1 km/h 24 % 0 mm
16:59 21.8 °C -0.3 °C 1017.8 hPa NW 13 km/h 10.5 km/h 23 % 0 mm
17:04 22.1 °C 0.6 °C 1017.8 hPa NW 13 km/h 5 km/h 24 % 0 mm
17:09 22 °C -0.1 °C 1017.8 hPa North 13 km/h 8.7 km/h 23 % 0 mm
17:14 21.8 °C -1.6 °C 1017.8 hPa North 16.7 km/h 10.1 km/h 21 % 0 mm
17:19 21.7 °C -0.9 °C 1017.8 hPa NW 9.7 km/h 5.3 km/h 22 % 0 mm
17:24 21.9 °C -0.2 °C 1017.8 hPa NW 14.8 km/h 11.3 km/h 23 % 0 mm
17:29 22.1 °C 0 °C 1017.5 hPa NW 13 km/h 9.7 km/h 23 % 0 mm
17:34 22.1 °C -0.7 °C 1017.5 hPa NNE 20.4 km/h 9.8 km/h 22 % 0 mm
17:39 22 °C -0.1 °C 1017.5 hPa NNE 11.3 km/h 5 km/h 23 % 0 mm
17:44 22.4 °C 0.2 °C 1017.5 hPa NW 14.5 km/h 11.6 km/h 23 % 0 mm
17:49 22.2 °C 0.1 °C 1017.2 hPa NW 13 km/h 10.6 km/h 23 % 0 mm
17:54 22.2 °C 0.1 °C 1017.2 hPa NW 9.3 km/h 6 km/h 23 % 0 mm
17:59 22.2 °C 0.1 °C 1017.2 hPa NW 7.4 km/h 2.9 km/h 23 % 0 mm
18:04 22.2 °C -0.6 °C 1017.2 hPa NNW 14.5 km/h 10.9 km/h 22 % 0 mm
18:09 21.8 °C -0.8 °C 1016.8 hPa NNW 8 km/h 7.1 km/h 22 % 0 mm
18:14 21.8 °C -0.8 °C 1016.8 hPa NNW 14.8 km/h 10.8 km/h 22 % 0 mm
18:19 21.8 °C -0.9 °C 1016.8 hPa North 13 km/h 9 km/h 22 % 0 mm
18:24 21.8 °C -0.9 °C 1016.8 hPa North 14.8 km/h 10.1 km/h 22 % 0 mm
18:29 21.7 °C -0.9 °C 1016.8 hPa North 13 km/h 13 km/h 22 % 0 mm
18:34 21.7 °C -1.6 °C 1016.8 hPa NW 14.8 km/h 11.1 km/h 21 % 0 mm
18:39 21.7 °C -0.9 °C 1016.8 hPa NNW 13 km/h 6.4 km/h 22 % 0 mm
18:44 21.7 °C -1.6 °C 1016.8 hPa NNW 14.8 km/h 11.9 km/h 21 % 0 mm
18:49 21.4 °C -1.2 °C 1016.8 hPa North 18.5 km/h 8 km/h 22 % 0 mm
18:54 21.4 °C -1.2 °C 1016.5 hPa NNW 11.1 km/h 10 km/h 22 % 0 mm
18:59 21.4 °C -1.2 °C 1016.5 hPa NNW 16.7 km/h 7.1 km/h 22 % 0 mm
19:04 21.3 °C -1.3 °C 1016.5 hPa NNW 9.7 km/h 7.4 km/h 22 % 0 mm
19:09 21 °C -1.6 °C 1016.5 hPa NNW 13 km/h 8.9 km/h 22 % 0 mm
19:14 20.8 °C -1.7 °C 1016.5 hPa NNW 9.3 km/h 8.2 km/h 22 % 0 mm
19:19 20.8 °C -1.7 °C 1016.8 hPa North 13 km/h 6 km/h 22 % 0 mm
19:24 20.6 °C -1.9 °C 1016.8 hPa NNW 5.6 km/h 4 km/h 22 % 0 mm
19:29 20.4 °C -2.7 °C 1016.8 hPa NNW 9.3 km/h 5.3 km/h 21 % 0 mm
19:34 20.2 °C -2.9 °C 1016.8 hPa NNW 7.4 km/h 5.1 km/h 21 % 0 mm
19:39 20.1 °C -2.3 °C 1016.8 hPa NNW 7.4 km/h 4.8 km/h 22 % 0 mm
19:44 19.9 °C -2.5 °C 1016.8 hPa NNW 7.4 km/h 4.7 km/h 22 % 0 mm
19:49 19.8 °C -1.9 °C 1016.8 hPa NNW 5.6 km/h 1.8 km/h 23 % 0 mm
19:54 19.5 °C -1.6 °C 1017.2 hPa NNW 5.6 km/h 2.4 km/h 24 % 0 mm
19:59 19.3 °C -1.8 °C 1016.8 hPa NNW 3.7 km/h 1.1 km/h 24 % 0 mm
20:04 19.2 °C -1.9 °C 1016.8 hPa NNW 5.6 km/h 2.9 km/h 24 % 0 mm
20:09 18.9 °C -1.6 °C 1016.8 hPa NNW 5.6 km/h 2.4 km/h 25 % 0 mm
20:14 18.7 °C -1.7 °C 1016.8 hPa NNW 5.6 km/h 2.1 km/h 25 % 0 mm
20:19 18.5 °C -1.9 °C 1016.8 hPa NNW 5.6 km/h 3.2 km/h 25 % 0 mm
20:24 18.3 °C -1.6 °C 1016.8 hPa NNW 3.7 km/h 1.3 km/h 26 % 0 mm
20:29 18.1 °C -1.7 °C 1016.8 hPa NNW 3.7 km/h 1.4 km/h 26 % 0 mm
20:34 18.1 °C -1.8 °C 1016.8 hPa NNW 3.7 km/h 2.1 km/h 26 % 0 mm
20:39 17.9 °C -1.4 °C 1017.2 hPa NNW 5.6 km/h 3.1 km/h 27 % 0 mm
20:44 17.6 °C -0.7 °C 1017.2 hPa NNW 5.6 km/h 3.4 km/h 29 % 0 mm
20:49 17.4 °C -1.3 °C 1017.2 hPa NNW 5.6 km/h 3.2 km/h 28 % 0 mm
20:54 17.3 °C -0.9 °C 1017.5 hPa NNW 3.7 km/h 1.1 km/h 29 % 0 mm
20:59 17.1 °C -1.1 °C 1017.2 hPa NNW 1.9 km/h 0.3 km/h 29 % 0 mm
21:04 16.9 °C -1.2 °C 1017.2 hPa Calm     29 % 0 mm
21:09 16.8 °C -0.9 °C 1017.5 hPa Calm   0.5 km/h 30 % 0 mm
21:14 16.6 °C -0.6 °C 1017.5 hPa NNW 3.7 km/h 2.1 km/h 31 % 0 mm
21:19 16.6 °C -1.1 °C 1017.5 hPa NNW 3.7 km/h 1.6 km/h 30 % 0 mm
21:24 16.5 °C -1.2 °C 1017.5 hPa NNW 3.7 km/h 0.6 km/h 30 % 0 mm
21:29 16.5 °C -0.7 °C 1017.5 hPa NNW 3.7 km/h 1.1 km/h 31 % 0 mm
21:34 16.4 °C -0.8 °C 1017.8 hPa NNW 3.7 km/h 2.6 km/h 31 % 0 mm
21:39 16.2 °C -1 °C 1017.8 hPa NNW 1.9 km/h 1.6 km/h 31 % 0 mm
21:44 16.1 °C -0.7 °C 1017.8 hPa NNW 3.7 km/h 1.9 km/h 32 % 0 mm
21:49 15.9 °C -0.8 °C 1018.2 hPa NNW 3.7 km/h 0.6 km/h 32 % 0 mm
21:54 15.8 °C -1.3 °C 1018.2 hPa NNW 3.7 km/h 1.4 km/h 31 % 0 mm
21:59 15.7 °C -0.9 °C 1018.2 hPa NNW 3.7 km/h   32 % 0 mm
22:04 15.6 °C -1.1 °C 1018.2 hPa NNW 3.7 km/h 1 km/h 32 % 0 mm
22:09 15.4 °C -0.8 °C 1018.2 hPa NNW 3.7 km/h 0.6 km/h 33 % 0 mm
22:14 15.1 °C -0.7 °C 1018.2 hPa Calm     34 % 0 mm
22:19 14.8 °C -0.9 °C 1018.2 hPa Calm     34 % 0 mm
22:24 14.6 °C -0.7 °C 1018.2 hPa NNW 1.9 km/h 1.3 km/h 35 % 0 mm
22:29 14.3 °C -0.6 °C 1018.2 hPa NNW 5.6 km/h 1.9 km/h 36 % 0 mm
22:34 14 °C -0.8 °C 1017.8 hPa NNW 5.6 km/h 3.5 km/h 36 % 0 mm
22:39 13.9 °C -0.9 °C 1017.8 hPa NNW 5.6 km/h 2.6 km/h 36 % 0 mm
22:44 13.9 °C -0.9 °C 1017.8 hPa NNW 3.7 km/h 1.1 km/h 36 % 0 mm
22:49 13.8 °C -1.1 °C 1017.8 hPa NNW 3.7 km/h 1.6 km/h 36 % 0 mm
22:54 13.6 °C -0.8 °C 1017.5 hPa Calm     37 % 0 mm
22:59 13.4 °C -1 °C 1017.8 hPa NNW 3.7 km/h 2.7 km/h 37 % 0 mm
23:04 13.4 °C -1 °C 1017.8 hPa NNW 1.9 km/h   37 % 0 mm
23:09 13.4 °C -0.7 °C 1017.5 hPa Calm     38 % 0 mm
23:14 13.3 °C -1.1 °C 1017.5 hPa Calm     37 % 0 mm
23:19 13.1 °C -0.9 °C 1017.5 hPa Calm     38 % 0 mm
23:24 12.9 °C -1.1 °C 1017.5 hPa Calm     38 % 0 mm
23:29 12.7 °C -0.9 °C 1017.2 hPa NNW 3.7 km/h 1.8 km/h 39 % 0 mm
23:34 12.6 °C -1 °C 1017.2 hPa NNW 3.7 km/h 1 km/h 39 % 0 mm
23:39 12.5 °C -1.1 °C 1017.2 hPa Calm     39 % 0 mm
23:44 12.3 °C -0.9 °C 1017.2 hPa NNW 3.7 km/h 0.6 km/h 40 % 0 mm
23:49 12.2 °C -0.7 °C 1017.2 hPa NNW 5.6 km/h 1.8 km/h 41 % 0 mm
23:54 12.1 °C -1.1 °C 1017.2 hPa NNW 3.7 km/h 1.1 km/h 40 % 0 mm
23:59 12 °C -1.2 °C 1016.8 hPa NNW 1.9 km/h 0.5 km/h 40 % 0 mm
Ararat Weather
Compliments of Weather Underground - 2.25 mb
Click here to send mail.


ABOUT

Live weather data from Ararat, Victoria, Australia, 3377
Data uploaded from Cumulus every 5 minutes to Weather Underground.
This site then downloads the raw data for formatting and display.
Metric and imperial data can be displayed. Graphs and historical data available.
Includes Sun and Moon times and rain image live from BOM.

Check out Ararat Weather on Facebook, Twitter and Google +

Help support ongoing costs by checking out the ads





Follow @AraratWeather